createdAt,value
2018-09-01T17:42:22.593Z,1.90
2018-09-01T17:43:22.594Z,1.90
2018-09-01T17:44:22.587Z,2.00
2018-09-01T17:45:22.592Z,1.80
2018-09-01T17:46:22.587Z,1.90
2018-09-01T17:47:22.596Z,1.80
2018-09-01T17:48:22.586Z,2.00
2018-09-01T17:49:22.615Z,1.90
2018-09-01T17:50:22.589Z,2.20
2018-09-01T17:51:22.596Z,1.80
2018-09-01T17:52:22.597Z,1.90
2018-09-01T17:53:22.592Z,2.00
2018-09-01T17:54:22.594Z,1.90
2018-09-01T17:56:15.028Z,2.00
2018-09-01T17:57:15.036Z,2.00
2018-09-01T17:58:15.031Z,1.90
2018-09-01T17:59:15.035Z,2.20
2018-09-01T18:00:15.029Z,1.90
2018-09-01T18:01:15.033Z,2.10
2018-09-01T18:02:17.967Z,1.80
2018-09-01T18:03:15.042Z,2.00
2018-09-01T18:04:15.048Z,2.10
2018-09-01T18:05:15.040Z,2.10
2018-09-01T18:06:15.040Z,1.90
2018-09-01T18:08:02.464Z,1.90
2018-09-01T18:09:44.880Z,2.20
2018-09-01T18:11:32.306Z,2.40
2018-09-01T18:12:32.318Z,2.10
2018-09-01T18:13:32.308Z,2.30
2018-09-01T18:14:32.314Z,2.40
2018-09-01T18:15:32.312Z,2.70
2018-09-01T18:16:32.372Z,2.60
2018-09-01T18:18:14.730Z,2.50
2018-09-01T18:19:14.737Z,2.40
2018-09-01T18:20:14.731Z,2.50
2018-09-01T18:27:37.893Z,2.70
2018-09-01T18:28:37.902Z,2.70
2018-09-01T18:29:37.939Z,3.00
2018-09-01T18:30:37.922Z,2.90
2018-09-01T18:31:37.898Z,2.40
2018-09-01T18:32:37.902Z,2.80
2018-09-01T18:33:37.900Z,2.80
2018-09-01T18:34:37.914Z,2.50
2018-09-01T18:35:37.910Z,2.80
2018-09-01T18:36:37.913Z,2.50
2018-09-01T18:37:37.909Z,2.60
2018-09-01T18:38:37.921Z,2.70
2018-09-01T18:39:37.927Z,2.60
2018-09-01T18:40:37.915Z,2.60
2018-09-01T18:41:37.911Z,2.30
2018-09-01T18:42:37.914Z,2.50
2018-09-01T18:43:37.912Z,2.30
2018-09-01T18:44:37.926Z,2.80
2018-09-01T18:45:37.920Z,3.30
2018-09-01T18:46:37.925Z,3.30
2018-09-01T18:47:37.921Z,3.20
2018-09-01T18:48:37.935Z,2.80
2018-09-01T18:49:37.927Z,2.60
2018-09-01T18:50:37.928Z,2.70
2018-09-01T18:51:37.923Z,2.40
2018-09-01T18:52:37.925Z,2.80
2018-09-01T18:53:37.925Z,2.40
2018-09-01T18:54:37.931Z,2.90
2018-09-01T18:55:37.927Z,2.80
2018-09-01T18:56:37.938Z,2.70
2018-09-01T18:57:37.931Z,2.60
2018-09-01T18:58:37.935Z,2.90
2018-09-01T18:59:37.932Z,2.70
2018-09-01T19:00:37.942Z,2.20
2018-09-01T19:01:37.934Z,2.40
2018-09-01T19:02:37.940Z,2.40
2018-09-01T19:03:38.185Z,2.60
2018-09-01T19:04:37.971Z,2.60
2018-09-01T19:05:37.936Z,2.40
2018-09-01T19:06:37.949Z,2.80
2018-09-01T19:07:37.945Z,2.70
2018-09-01T19:08:37.944Z,2.50
2018-09-01T19:09:37.942Z,3.00
2018-09-01T19:10:37.944Z,2.50
2018-09-01T19:11:37.947Z,2.60
2018-09-01T19:12:37.949Z,2.60
2018-09-01T19:13:37.989Z,2.60
2018-09-01T19:14:37.948Z,2.90
2018-09-01T19:15:37.946Z,2.70
2018-09-01T19:16:37.953Z,2.90
2018-09-01T19:17:37.953Z,2.60
2018-09-01T19:18:37.958Z,2.70
2018-09-01T19:19:37.953Z,2.80
2018-09-01T19:20:37.958Z,2.60
2018-09-01T19:21:37.954Z,2.70
2018-09-01T19:22:37.971Z,3.20
2018-09-01T19:23:37.953Z,3.00
2018-09-01T19:24:37.955Z,2.60
2018-09-01T19:25:37.957Z,2.60
2018-09-01T19:26:37.959Z,3.10
2018-09-01T19:27:37.958Z,2.80
2018-09-01T19:28:37.966Z,2.80
2018-09-01T19:29:37.959Z,2.80
2018-09-01T19:30:37.963Z,2.90
2018-09-01T19:31:37.958Z,3.20
2018-09-01T19:32:38.022Z,3.20
2018-09-01T19:33:37.960Z,2.90
2018-09-01T19:34:37.969Z,2.80
2018-09-01T19:35:37.973Z,3.00
2018-09-01T19:36:37.966Z,3.20
2018-09-01T19:37:37.969Z,2.90
2018-09-01T19:38:37.973Z,3.00
2018-09-01T19:39:37.971Z,3.20
2018-09-01T19:40:37.968Z,3.20
2018-09-01T19:41:37.965Z,3.10
2018-09-01T19:42:37.969Z,3.10
2018-09-01T19:43:37.967Z,3.20
2018-09-01T19:44:38.022Z,3.10
2018-09-01T19:45:38.167Z,3.00
2018-09-01T19:46:37.972Z,3.10
2018-09-01T19:47:37.968Z,3.10
2018-09-01T19:48:37.976Z,3.20
2018-09-01T19:49:37.974Z,2.90
2018-09-01T19:50:37.982Z,3.00
2018-09-01T19:51:37.967Z,3.10
2018-09-01T19:52:37.971Z,3.10
2018-09-01T19:53:37.971Z,3.00
2018-09-01T19:54:37.979Z,3.10
2018-09-01T19:55:37.973Z,3.00
2018-09-01T19:56:37.984Z,3.10
2018-09-01T19:57:38.076Z,3.10
2018-09-01T19:58:37.974Z,2.70
2018-09-01T19:59:37.970Z,3.10
2018-09-01T20:00:37.978Z,2.80
2018-09-01T20:01:37.971Z,2.80
2018-09-01T20:02:37.994Z,3.10
2018-09-01T20:03:37.974Z,3.10
2018-09-01T20:04:38.062Z,3.20
2018-09-01T20:05:37.972Z,3.30
2018-09-01T20:06:37.982Z,3.60
2018-09-01T20:07:37.974Z,3.00
2018-09-01T20:08:37.976Z,3.20
2018-09-01T20:09:37.974Z,3.10
2018-09-01T20:10:37.978Z,3.20
2018-09-01T20:11:37.974Z,3.20
2018-09-01T20:12:37.976Z,3.30
2018-09-01T20:13:37.987Z,3.80
2018-09-01T20:14:37.977Z,3.50
2018-09-01T20:15:37.974Z,3.30
2018-09-01T20:16:37.980Z,3.20
2018-09-01T20:17:37.974Z,3.50
2018-09-01T20:18:37.976Z,3.30
2018-09-01T20:34:43.296Z,3.50
2018-09-01T20:45:51.429Z,3.80
2018-09-01T20:49:17.320Z,3.60
2018-09-01T20:50:20.756Z,3.50
2018-09-01T20:52:47.238Z,3.80
2018-09-01T20:53:44.646Z,3.10
2018-09-01T20:54:45.222Z,3.40
2018-09-01T21:11:19.339Z,3.40
2018-09-01T21:14:23.230Z,3.30
2018-09-01T21:16:05.643Z,3.50
2018-09-01T21:17:05.646Z,3.60
2018-09-01T21:18:06.653Z,3.50
2018-09-01T21:19:05.642Z,3.30
2018-09-01T21:20:06.447Z,3.60
2018-09-01T21:21:06.248Z,3.60
2018-09-01T21:22:53.058Z,3.40
2018-09-01T21:25:00.516Z,3.40
2018-09-01T21:28:13.051Z,3.30
2018-09-01T21:29:10.432Z,3.50
2018-09-01T21:32:40.260Z,3.60
2018-09-01T21:33:40.467Z,3.60
2018-09-01T21:34:40.257Z,3.50
2018-09-01T21:37:15.102Z,3.70
2018-09-01T21:39:02.524Z,3.50
2018-09-01T21:40:02.530Z,3.40
2018-09-01T21:41:02.526Z,3.30
2018-09-01T21:43:48.195Z,3.50
2018-09-01T21:44:47.390Z,3.60
2018-09-01T21:46:29.797Z,3.70
2018-09-01T21:49:12.208Z,3.60
2018-09-01T21:50:12.213Z,3.50
2018-09-01T21:51:12.205Z,3.70
2018-09-01T21:52:12.208Z,3.60
2018-09-01T21:54:29.683Z,3.60
2018-09-01T21:55:29.688Z,3.50
2018-09-01T21:56:29.680Z,3.10
2018-09-01T21:58:27.120Z,3.30
2018-09-01T22:04:42.801Z,3.30
2018-09-01T22:05:42.804Z,3.10
2018-09-01T22:06:42.798Z,3.30
2018-09-01T22:07:42.799Z,3.50
2018-09-01T22:08:42.792Z,3.30
2018-09-01T22:12:08.486Z,3.40
2018-09-01T22:21:09.895Z,3.50
2018-09-01T22:26:50.509Z,3.50
2018-09-01T22:32:41.897Z,3.70
2018-09-01T22:40:41.103Z,3.40
2018-09-01T22:43:25.726Z,3.70
2018-09-01T22:47:08.020Z,3.50
2018-09-01T22:49:35.521Z,3.50
2018-09-01T22:51:58.812Z,3.50
2018-09-01T22:55:23.693Z,3.70
2018-09-01T22:57:32.633Z,3.80
2018-09-01T23:00:51.079Z,3.50
2018-09-01T23:01:51.085Z,3.10
2018-09-01T23:03:48.532Z,3.40
2018-09-01T23:06:26.033Z,3.10
2018-09-01T23:07:28.660Z,3.50
2018-09-01T23:11:34.134Z,4.10
2018-09-01T23:12:34.140Z,3.90
2018-09-01T23:14:51.609Z,3.50
2018-09-01T23:16:54.059Z,3.80
2018-09-01T23:20:59.825Z,3.70
2018-09-01T23:21:59.829Z,3.70
2018-09-01T23:22:59.822Z,3.60
2018-09-01T23:23:59.824Z,4.00
2018-09-01T23:24:59.816Z,4.20
2018-09-01T23:25:59.817Z,3.70
2018-09-01T23:26:59.812Z,3.60
2018-09-01T23:27:59.819Z,3.50
2018-09-01T23:28:59.810Z,3.80
2018-09-01T23:29:59.810Z,3.80
2018-09-01T23:30:59.806Z,3.60
2018-09-01T23:31:59.805Z,3.70
2018-09-01T23:32:59.868Z,3.60
2018-09-01T23:33:59.805Z,3.80
2018-09-01T23:34:59.797Z,4.00
2018-09-01T23:35:59.798Z,3.90
2018-09-01T23:36:59.793Z,4.40
2018-09-01T23:37:59.797Z,3.80
2018-09-01T23:38:59.862Z,4.00
2018-09-01T23:39:59.796Z,4.30
2018-09-01T23:40:59.787Z,4.00
2018-09-01T23:41:59.791Z,4.20
2018-09-01T23:42:59.785Z,3.90
2018-09-01T23:43:59.785Z,3.90
2018-09-01T23:44:59.779Z,4.20
2018-09-01T23:45:59.778Z,3.70
2018-09-01T23:46:59.773Z,4.20
2018-09-01T23:47:59.775Z,4.00
2018-09-01T23:48:59.771Z,3.80
2018-09-01T23:49:59.787Z,4.10
2018-09-01T23:50:59.765Z,4.10
2018-09-01T23:51:59.766Z,4.30
2018-09-01T23:52:59.765Z,4.20
2018-09-01T23:53:59.770Z,4.30
2018-09-01T23:54:59.758Z,4.20
2018-09-01T23:55:59.760Z,4.20
2018-09-01T23:56:59.753Z,4.10
2018-09-01T23:57:59.803Z,4.60
2018-09-01T23:58:59.748Z,4.20
2018-09-01T23:59:59.754Z,4.20
